createdAt,value
2018-05-23T00:05:20.390Z,20.5
2018-05-23T00:15:20.479Z,20.5
2018-05-23T00:25:18.811Z,20.4
2018-05-23T00:35:17.706Z,20.4
2018-05-23T00:45:16.905Z,20.4
2018-05-23T00:55:16.288Z,20.4
2018-05-23T01:05:15.511Z,20.3
2018-05-23T01:15:14.900Z,20.3
2018-05-23T01:25:13.822Z,20.2
2018-05-23T01:35:13.133Z,20.1
2018-05-23T01:45:12.550Z,20.1
2018-05-23T01:55:11.758Z,20
2018-05-23T02:05:11.135Z,19.9
2018-05-23T02:15:10.007Z,19.9
2018-05-23T02:25:09.208Z,19.9
2018-05-23T02:35:08.331Z,19.8
2018-05-23T02:45:07.996Z,19.8
2018-05-23T02:55:07.691Z,19.7
2018-05-23T03:05:05.814Z,19.7
2018-05-23T03:15:05.486Z,19.6
2018-05-23T03:25:05.297Z,19.6
2018-05-23T03:35:04.245Z,19.6
2018-05-23T03:45:03.122Z,19.6
2018-05-23T03:55:02.905Z,19.8
2018-05-23T04:05:00.958Z,19.8
2018-05-23T04:15:00.238Z,20
2018-05-23T04:25:00.091Z,20.1
2018-05-23T04:34:59.807Z,20.3
2018-05-23T04:44:58.387Z,20.4
2018-05-23T04:54:57.080Z,20.7
2018-05-23T05:04:56.769Z,20.9
2018-05-23T05:14:55.905Z,21.1
2018-05-23T05:24:55.991Z,21.3
2018-05-23T05:34:54.189Z,21.6
2018-05-23T05:44:53.318Z,21.8
2018-05-23T05:54:52.727Z,22
2018-05-23T06:04:52.117Z,22.3
2018-05-23T06:14:51.675Z,22.4
2018-05-23T06:24:50.719Z,22.6
2018-05-23T06:34:49.235Z,22.6
2018-05-23T06:44:48.795Z,22.7
2018-05-23T06:54:47.973Z,23.1
2018-05-23T07:04:47.565Z,23.1
2018-05-23T07:14:46.857Z,23.2
2018-05-23T07:24:46.013Z,23.3
2018-05-23T07:34:44.685Z,23.3
2018-05-23T07:44:43.754Z,23.5
2018-05-23T07:54:43.620Z,23.6
2018-05-23T08:04:42.865Z,23.7
2018-05-23T08:14:41.381Z,23.9
2018-05-23T08:24:41.447Z,23.8
2018-05-23T08:34:40.193Z,23.9
2018-05-23T08:44:39.547Z,23.9
2018-05-23T08:54:38.586Z,24.2
2018-05-23T09:04:37.696Z,24.3
2018-05-23T09:14:36.938Z,24.1
2018-05-23T09:24:36.159Z,23.9
2018-05-23T09:34:35.371Z,23.9
2018-05-23T09:44:34.860Z,24
2018-05-23T09:54:33.827Z,24.1
2018-05-23T10:04:33.202Z,24.3
2018-05-23T10:14:32.608Z,24.2
2018-05-23T10:24:31.583Z,24.1
2018-05-23T10:34:30.676Z,24.3
2018-05-23T10:44:29.957Z,24.3
2018-05-23T10:54:28.925Z,24.4
2018-05-23T11:04:28.372Z,24.4
2018-05-23T11:14:27.325Z,24.4
2018-05-23T11:24:27.123Z,24.4
2018-05-23T11:34:26.058Z,24.4
2018-05-23T11:44:25.213Z,24.4
2018-05-23T11:54:24.730Z,24.4
2018-05-23T12:04:23.793Z,24.6
2018-05-23T12:14:23.281Z,24.5
2018-05-23T12:24:22.133Z,24.4
2018-05-23T12:34:21.754Z,24.4
2018-05-23T12:44:21.206Z,24.3
2018-05-23T12:54:20.090Z,24.3
2018-05-23T13:04:18.968Z,24.1
2018-05-23T13:14:18.000Z,24.1
2018-05-23T13:24:18.282Z,23.9
